sensor_id;sensor_type;location;lat;lon;timestamp;pressure;altitude;pressure_sealevel;temperature;humidity
6134;BME280;3098;42.678;23.364;2023-04-03T00:01:02;94300.63;;;6.72;97.86
6134;BME280;3098;42.678;23.364;2023-04-03T00:03:30;94282.50;;;6.57;98.11
6134;BME280;3098;42.678;23.364;2023-04-03T00:05:57;94309.03;;;6.60;98.69
6134;BME280;3098;42.678;23.364;2023-04-03T00:08:24;94284.88;;;6.45;98.70
6134;BME280;3098;42.678;23.364;2023-04-03T00:10:51;94302.63;;;6.53;98.99
6134;BME280;3098;42.678;23.364;2023-04-03T00:13:18;94306.13;;;6.48;99.71
6134;BME280;3098;42.678;23.364;2023-04-03T00:15:45;94201.38;;;5.82;99.56
6134;BME280;3098;42.678;23.364;2023-04-03T00:18:13;94243.59;;;5.77;99.80
6134;BME280;3098;42.678;23.364;2023-04-03T00:20:42;94216.09;;;5.83;100.00
6134;BME280;3098;42.678;23.364;2023-04-03T00:23:08;94282.56;;;6.29;100.00
6134;BME280;3098;42.678;23.364;2023-04-03T00:25:36;94284.31;;;6.34;100.00
6134;BME280;3098;42.678;23.364;2023-04-03T00:28:04;94188.66;;;5.62;100.00
6134;BME280;3098;42.678;23.364;2023-04-03T00:30:32;94294.19;;;6.15;100.00
6134;BME280;3098;42.678;23.364;2023-04-03T00:32:59;94232.47;;;5.80;100.00
6134;BME280;3098;42.678;23.364;2023-04-03T00:35:26;94295.34;;;6.22;100.00
6134;BME280;3098;42.678;23.364;2023-04-03T00:37:55;94198.28;;;5.80;100.00
6134;BME280;3098;42.678;23.364;2023-04-03T00:40:24;94235.50;;;6.14;100.00
6134;BME280;3098;42.678;23.364;2023-04-03T00:42:55;94290.91;;;6.45;100.00
6134;BME280;3098;42.678;23.364;2023-04-03T00:45:27;94282.94;;;6.36;100.00
6134;BME280;3098;42.678;23.364;2023-04-03T00:47:55;94274.66;;;6.29;100.00
6134;BME280;3098;42.678;23.364;2023-04-03T00:50:25;94296.31;;;6.40;100.00
6134;BME280;3098;42.678;23.364;2023-04-03T00:52:54;94292.59;;;6.41;100.00
6134;BME280;3098;42.678;23.364;2023-04-03T00:55:22;94288.00;;;6.47;100.00
6134;BME280;3098;42.678;23.364;2023-04-03T00:57:49;94275.63;;;6.33;100.00
6134;BME280;3098;42.678;23.364;2023-04-03T01:00:20;94292.75;;;6.45;100.00
6134;BME280;3098;42.678;23.364;2023-04-03T01:02:49;94299.72;;;6.41;100.00
6134;BME280;3098;42.678;23.364;2023-04-03T01:05:17;94295.25;;;6.41;100.00
6134;BME280;3098;42.678;23.364;2023-04-03T01:07:46;94219.91;;;5.77;100.00
6134;BME280;3098;42.678;23.364;2023-04-03T01:10:17;94285.59;;;6.23;100.00
6134;BME280;3098;42.678;23.364;2023-04-03T01:12:47;94297.19;;;6.35;100.00
6134;BME280;3098;42.678;23.364;2023-04-03T01:15:16;94248.09;;;6.04;100.00
6134;BME280;3098;42.678;23.364;2023-04-03T01:17:45;94300.78;;;6.40;100.00
6134;BME280;3098;42.678;23.364;2023-04-03T01:23:49;94239.31;;;5.95;100.00
6134;BME280;3098;42.678;23.364;2023-04-03T01:26:20;94270.41;;;6.06;100.00
6134;BME280;3098;42.678;23.364;2023-04-03T01:28:47;94298.84;;;6.31;100.00
6134;BME280;3098;42.678;23.364;2023-04-03T01:31:19;94256.47;;;5.92;100.00
6134;BME280;3098;42.678;23.364;2023-04-03T01:33:50;94259.38;;;5.91;100.00
6134;BME280;3098;42.678;23.364;2023-04-03T01:36:20;94246.53;;;5.89;100.00
6134;BME280;3098;42.678;23.364;2023-04-03T01:38:47;94285.31;;;5.97;100.00
6134;BME280;3098;42.678;23.364;2023-04-03T01:41:16;94287.97;;;5.97;100.00
6134;BME280;3098;42.678;23.364;2023-04-03T01:43:43;94294.22;;;6.01;100.00
6134;BME280;3098;42.678;23.364;2023-04-03T01:46:10;94267.25;;;5.77;100.00
6134;BME280;3098;42.678;23.364;2023-04-03T01:48:37;94257.44;;;5.69;100.00
6134;BME280;3098;42.678;23.364;2023-04-03T01:51:05;94259.56;;;5.67;100.00
6134;BME280;3098;42.678;23.364;2023-04-03T01:53:33;94298.00;;;5.95;100.00
6134;BME280;3098;42.678;23.364;2023-04-03T01:55:59;94283.16;;;5.72;100.00
6134;BME280;3098;42.678;23.364;2023-04-03T01:58:27;94305.16;;;5.62;100.00
6134;BME280;3098;42.678;23.364;2023-04-03T02:00:54;94315.38;;;5.50;100.00
6134;BME280;3098;42.678;23.364;2023-04-03T02:03:21;94322.25;;;5.33;100.00
6134;BME280;3098;42.678;23.364;2023-04-03T02:05:49;94314.63;;;5.31;100.00
6134;BME280;3098;42.678;23.364;2023-04-03T02:08:17;94320.69;;;5.32;100.00
6134;BME280;3098;42.678;23.364;2023-04-03T02:10:47;94312.47;;;5.19;100.00
6134;BME280;3098;42.678;23.364;2023-04-03T02:13:14;94304.41;;;4.97;100.00
6134;BME280;3098;42.678;23.364;2023-04-03T02:15:41;94288.94;;;4.96;100.00
6134;BME280;3098;42.678;23.364;2023-04-03T02:18:08;94273.50;;;4.76;100.00
6134;BME280;3098;42.678;23.364;2023-04-03T02:20:35;94317.69;;;5.06;100.00
6134;BME280;3098;42.678;23.364;2023-04-03T02:23:03;94289.03;;;4.91;100.00
6134;BME280;3098;42.678;23.364;2023-04-03T02:25:32;94311.63;;;5.05;100.00
6134;BME280;3098;42.678;23.364;2023-04-03T02:27:59;94302.78;;;5.01;100.00
6134;BME280;3098;42.678;23.364;2023-04-03T02:30:27;94223.03;;;4.60;100.00
6134;BME280;3098;42.678;23.364;2023-04-03T02:32:53;94286.00;;;5.16;100.00
6134;BME280;3098;42.678;23.364;2023-04-03T02:35:21;94088.75;;;3.83;100.00
6134;BME280;3098;42.678;23.364;2023-04-03T02:37:48;94277.56;;;5.00;100.00
6134;BME280;3098;42.678;23.364;2023-04-03T02:40:15;94290.44;;;5.02;100.00
6134;BME280;3098;42.678;23.364;2023-04-03T02:42:43;94245.88;;;4.78;100.00
6134;BME280;3098;42.678;23.364;2023-04-03T02:45:10;94263.13;;;4.65;100.00
6134;BME280;3098;42.678;23.364;2023-04-03T02:47:37;94246.38;;;4.43;100.00
6134;BME280;3098;42.678;23.364;2023-04-03T02:50:05;94292.66;;;4.76;100.00
6134;BME280;3098;42.678;23.364;2023-04-03T02:52:32;94287.75;;;4.70;100.00
6134;BME280;3098;42.678;23.364;2023-04-03T02:54:59;94252.72;;;4.42;100.00
6134;BME280;3098;42.678;23.364;2023-04-03T02:57:26;94282.03;;;4.68;100.00
6134;BME280;3098;42.678;23.364;2023-04-03T02:59:55;94283.94;;;4.62;100.00
6134;BME280;3098;42.678;23.364;2023-04-03T03:02:22;94266.13;;;4.59;100.00
6134;BME280;3098;42.678;23.364;2023-04-03T03:04:49;94280.75;;;4.65;100.00
6134;BME280;3098;42.678;23.364;2023-04-03T03:07:16;94283.16;;;4.61;100.00
6134;BME280;3098;42.678;23.364;2023-04-03T03:09:43;94289.91;;;4.68;100.00
6134;BME280;3098;42.678;23.364;2023-04-03T03:12:10;94275.75;;;4.82;100.00
6134;BME280;3098;42.678;23.364;2023-04-03T03:14:37;94260.00;;;4.82;100.00
6134;BME280;3098;42.678;23.364;2023-04-03T03:17:06;94268.19;;;4.94;100.00
6134;BME280;3098;42.678;23.364;2023-04-03T03:19:33;94242.09;;;4.84;100.00
6134;BME280;3098;42.678;23.364;2023-04-03T03:21:59;94269.31;;;5.07;100.00
6134;BME280;3098;42.678;23.364;2023-04-03T03:24:26;94255.19;;;5.03;100.00
6134;BME280;3098;42.678;23.364;2023-04-03T03:26:53;94262.41;;;5.11;100.00
6134;BME280;3098;42.678;23.364;2023-04-03T03:29:21;94255.56;;;4.96;100.00
6134;BME280;3098;42.678;23.364;2023-04-03T03:31:48;94268.16;;;5.13;100.00
6134;BME280;3098;42.678;23.364;2023-04-03T03:34:17;94267.38;;;5.12;100.00
6134;BME280;3098;42.678;23.364;2023-04-03T03:36:44;94275.03;;;4.95;100.00
6134;BME280;3098;42.678;23.364;2023-04-03T03:39:11;94272.28;;;4.87;100.00
6134;BME280;3098;42.678;23.364;2023-04-03T03:41:38;94278.97;;;4.79;100.00
6134;BME280;3098;42.678;23.364;2023-04-03T03:44:05;94256.69;;;4.58;100.00
6134;BME280;3098;42.678;23.364;2023-04-03T03:46:32;94263.41;;;4.64;100.00
6134;BME280;3098;42.678;23.364;2023-04-03T03:49:00;94267.66;;;4.79;100.00
6134;BME280;3098;42.678;23.364;2023-04-03T03:51:28;94226.59;;;4.50;100.00
6134;BME280;3098;42.678;23.364;2023-04-03T03:53:56;94271.22;;;4.88;100.00
6134;BME280;3098;42.678;23.364;2023-04-03T03:56:23;94056.03;;;3.43;100.00
6134;BME280;3098;42.678;23.364;2023-04-03T03:58:50;94165.25;;;4.28;100.00
6134;BME280;3098;42.678;23.364;2023-04-03T04:01:18;94258.06;;;4.88;100.00
6134;BME280;3098;42.678;23.364;2023-04-03T04:03:44;94166.69;;;4.01;100.00
6134;BME280;3098;42.678;23.364;2023-04-03T04:06:11;94251.91;;;4.60;100.00
6134;BME280;3098;42.678;23.364;2023-04-03T04:08:40;94276.03;;;4.81;100.00
6134;BME280;3098;42.678;23.364;2023-04-03T04:11:07;94239.88;;;4.59;100.00
6134;BME280;3098;42.678;23.364;2023-04-03T04:13:35;94271.47;;;4.86;100.00
6134;BME280;3098;42.678;23.364;2023-04-03T04:16:02;94239.78;;;4.64;100.00
6134;BME280;3098;42.678;23.364;2023-04-03T04:18:29;94098.25;;;3.61;100.00
6134;BME280;3098;42.678;23.364;2023-04-03T04:20:56;94258.34;;;4.54;100.00
6134;BME280;3098;42.678;23.364;2023-04-03T04:23:23;94288.47;;;4.75;100.00
6134;BME280;3098;42.678;23.364;2023-04-03T04:25:51;94291.44;;;4.69;100.00
6134;BME280;3098;42.678;23.364;2023-04-03T04:28:18;94293.25;;;4.73;100.00
6134;BME280;3098;42.678;23.364;2023-04-03T04:30:45;94296.69;;;4.87;100.00
6134;BME280;3098;42.678;23.364;2023-04-03T04:33:12;94293.91;;;4.97;100.00
6134;BME280;3098;42.678;23.364;2023-04-03T04:35:42;94262.53;;;4.87;100.00
6134;BME280;3098;42.678;23.364;2023-04-03T04:38:09;94192.59;;;4.59;100.00
6134;BME280;3098;42.678;23.364;2023-04-03T04:40:36;94217.44;;;4.80;100.00
6134;BME280;3098;42.678;23.364;2023-04-03T04:43:06;94271.59;;;5.13;100.00
6134;BME280;3098;42.678;23.364;2023-04-03T04:45:32;94254.63;;;5.19;100.00
6134;BME280;3098;42.678;23.364;2023-04-03T04:48:00;94247.63;;;5.15;100.00
6134;BME280;3098;42.678;23.364;2023-04-03T04:50:27;94218.03;;;5.09;100.00
6134;BME280;3098;42.678;23.364;2023-04-03T04:52:54;94306.63;;;5.82;100.00
6134;BME280;3098;42.678;23.364;2023-04-03T04:55:22;94303.28;;;5.95;100.00
6134;BME280;3098;42.678;23.364;2023-04-03T04:57:52;94285.91;;;5.94;100.00
6134;BME280;3098;42.678;23.364;2023-04-03T05:00:23;94279.69;;;5.90;100.00
6134;BME280;3098;42.678;23.364;2023-04-03T05:02:52;94268.34;;;5.76;100.00
6134;BME280;3098;42.678;23.364;2023-04-03T05:05:19;94324.91;;;6.19;100.00
6134;BME280;3098;42.678;23.364;2023-04-03T05:07:46;94308.41;;;6.14;100.00
6134;BME280;3098;42.678;23.364;2023-04-03T05:10:16;94334.84;;;6.09;100.00
6134;BME280;3098;42.678;23.364;2023-04-03T05:12:47;94303.03;;;5.78;100.00
6134;BME280;3098;42.678;23.364;2023-04-03T05:15:14;94309.97;;;5.88;100.00
6134;BME280;3098;42.678;23.364;2023-04-03T05:18:04;94343.91;;;6.16;100.00
6134;BME280;3098;42.678;23.364;2023-04-03T05:20:32;94345.59;;;6.12;100.00
6134;BME280;3098;42.678;23.364;2023-04-03T05:23:00;94235.59;;;5.55;100.00
6134;BME280;3098;42.678;23.364;2023-04-03T05:25:27;94331.53;;;6.17;100.00
6134;BME280;3098;42.678;23.364;2023-04-03T05:27:58;94289.13;;;6.18;100.00
6134;BME280;3098;42.678;23.364;2023-04-03T05:30:28;94240.94;;;6.18;100.00
6134;BME280;3098;42.678;23.364;2023-04-03T05:32:59;94334.72;;;6.90;100.00
6134;BME280;3098;42.678;23.364;2023-04-03T05:35:32;94321.63;;;8.14;100.00
6134;BME280;3098;42.678;23.364;2023-04-03T05:37:59;94320.72;;;9.00;100.00
6134;BME280;3098;42.678;23.364;2023-04-03T05:40:26;94335.31;;;9.49;100.00
6134;BME280;3098;42.678;23.364;2023-04-03T05:42:59;94319.63;;;9.27;100.00
6134;BME280;3098;42.678;23.364;2023-04-03T05:45:26;94195.91;;;8.04;97.11
6134;BME280;3098;42.678;23.364;2023-04-03T05:47:53;94335.59;;;8.53;96.07
6134;BME280;3098;42.678;23.364;2023-04-03T05:50:22;94292.53;;;7.96;96.23
6134;BME280;3098;42.678;23.364;2023-04-03T05:52:55;94331.56;;;8.08;97.09
6134;BME280;3098;42.678;23.364;2023-04-03T05:55:24;94307.25;;;7.89;97.70
6134;BME280;3098;42.678;23.364;2023-04-03T05:57:54;94315.34;;;8.01;97.23
6134;BME280;3098;42.678;23.364;2023-04-03T06:00:25;94266.59;;;7.59;97.53
6134;BME280;3098;42.678;23.364;2023-04-03T06:02:53;94335.41;;;8.02;97.62
6134;BME280;3098;42.678;23.364;2023-04-03T06:05:24;94294.16;;;7.84;96.45
6134;BME280;3098;42.678;23.364;2023-04-03T06:07:51;94316.75;;;7.98;96.25
6134;BME280;3098;42.678;23.364;2023-04-03T06:10:23;94320.53;;;8.15;95.82
6134;BME280;3098;42.678;23.364;2023-04-03T06:12:50;94305.63;;;8.19;94.95
6134;BME280;3098;42.678;23.364;2023-04-03T06:15:17;94242.69;;;7.64;94.33
6134;BME280;3098;42.678;23.364;2023-04-03T06:17:44;94307.56;;;8.35;94.16
6134;BME280;3098;42.678;23.364;2023-04-03T06:20:11;94284.56;;;8.36;93.55
6134;BME280;3098;42.678;23.364;2023-04-03T06:22:41;94292.72;;;8.56;93.89
6134;BME280;3098;42.678;23.364;2023-04-03T06:25:08;94308.28;;;8.84;92.29
6134;BME280;3098;42.678;23.364;2023-04-03T06:27:36;94294.41;;;8.70;92.20
6134;BME280;3098;42.678;23.364;2023-04-03T06:30:04;94313.19;;;9.45;90.93
6134;BME280;3098;42.678;23.364;2023-04-03T06:32:31;94197.56;;;8.56;88.83
6134;BME280;3098;42.678;23.364;2023-04-03T06:35:04;94321.16;;;9.45;88.20
6134;BME280;3098;42.678;23.364;2023-04-03T06:37:34;94336.41;;;9.31;87.49
6134;BME280;3098;42.678;23.364;2023-04-03T06:40:09;94240.59;;;9.00;87.62
6134;BME280;3098;42.678;23.364;2023-04-03T06:42:41;94252.53;;;9.23;85.90
6134;BME280;3098;42.678;23.364;2023-04-03T06:45:21;94120.28;;;7.99;86.95
6134;BME280;3098;42.678;23.364;2023-04-03T06:47:49;94322.75;;;9.03;89.25
6134;BME280;3098;42.678;23.364;2023-04-03T06:50:18;94318.06;;;8.92;90.94
6134;BME280;3098;42.678;23.364;2023-04-03T06:52:45;94219.31;;;8.36;91.29
6134;BME280;3098;42.678;23.364;2023-04-03T06:55:16;94308.25;;;9.27;89.21
6134;BME280;3098;42.678;23.364;2023-04-03T06:57:43;94312.72;;;9.60;87.67
6134;BME280;3098;42.678;23.364;2023-04-03T07:00:14;94322.38;;;10.20;85.17
6134;BME280;3098;42.678;23.364;2023-04-03T07:02:44;94277.31;;;10.20;83.76
6134;BME280;3098;42.678;23.364;2023-04-03T07:05:12;94320.28;;;10.34;82.77
6134;BME280;3098;42.678;23.364;2023-04-03T07:07:41;94279.25;;;9.94;83.20
6134;BME280;3098;42.678;23.364;2023-04-03T07:10:11;94267.91;;;9.93;83.69
6134;BME280;3098;42.678;23.364;2023-04-03T07:12:42;94315.56;;;10.69;82.21
6134;BME280;3098;42.678;23.364;2023-04-03T07:15:10;94269.81;;;10.22;81.44
6134;BME280;3098;42.678;23.364;2023-04-03T07:17:41;94290.78;;;10.85;80.02
6134;BME280;3098;42.678;23.364;2023-04-03T07:20:11;94265.34;;;11.05;78.07
6134;BME280;3098;42.678;23.364;2023-04-03T07:22:40;94304.44;;;11.17;77.05
6134;BME280;3098;42.678;23.364;2023-04-03T07:25:07;94303.06;;;11.31;76.94
6134;BME280;3098;42.678;23.364;2023-04-03T07:27:36;94286.31;;;10.77;77.65
6134;BME280;3098;42.678;23.364;2023-04-03T07:30:05;94298.41;;;11.28;78.27
6134;BME280;3098;42.678;23.364;2023-04-03T07:32:33;94201.75;;;10.76;76.51
6134;BME280;3098;42.678;23.364;2023-04-03T07:35:01;94217.81;;;10.59;78.17
6134;BME280;3098;42.678;23.364;2023-04-03T07:37:28;94187.41;;;10.56;78.30
6134;BME280;3098;42.678;23.364;2023-04-03T07:39:55;94263.16;;;10.86;77.89
6134;BME280;3098;42.678;23.364;2023-04-03T07:42:24;94232.31;;;10.41;79.80
6134;BME280;3098;42.678;23.364;2023-04-03T07:44:53;94291.75;;;11.02;80.03
6134;BME280;3098;42.678;23.364;2023-04-03T07:47:22;94247.91;;;10.83;79.71
6134;BME280;3098;42.678;23.364;2023-04-03T07:49:49;94278.16;;;10.62;80.17
6134;BME280;3098;42.678;23.364;2023-04-03T07:52:17;94233.63;;;11.09;78.58
6134;BME280;3098;42.678;23.364;2023-04-03T07:54:43;94203.22;;;10.53;77.80
6134;BME280;3098;42.678;23.364;2023-04-03T07:57:10;94283.69;;;10.48;80.36
6134;BME280;3098;42.678;23.364;2023-04-03T07:59:38;94285.84;;;10.25;82.94
6134;BME280;3098;42.678;23.364;2023-04-03T08:02:08;94283.88;;;10.72;81.98
6134;BME280;3098;42.678;23.364;2023-04-03T08:04:37;94277.13;;;10.25;81.71
6134;BME280;3098;42.678;23.364;2023-04-03T08:07:05;94268.31;;;10.62;81.43
6134;BME280;3098;42.678;23.364;2023-04-03T08:09:32;94179.13;;;10.78;78.09
6134;BME280;3098;42.678;23.364;2023-04-03T08:11:58;94228.63;;;10.74;77.83
6134;BME280;3098;42.678;23.364;2023-04-03T08:14:26;94209.09;;;10.58;77.56
6134;BME280;3098;42.678;23.364;2023-04-03T08:16:53;94265.94;;;11.43;77.39
6134;BME280;3098;42.678;23.364;2023-04-03T08:19:20;94282.09;;;11.50;77.33
6134;BME280;3098;42.678;23.364;2023-04-03T08:21:48;94076.59;;;10.94;75.50
6134;BME280;3098;42.678;23.364;2023-04-03T08:24:15;94073.44;;;10.68;74.01
6134;BME280;3098;42.678;23.364;2023-04-03T08:26:42;94098.97;;;10.73;73.64
6134;BME280;3098;42.678;23.364;2023-04-03T08:29:09;94214.75;;;11.22;74.79
6134;BME280;3098;42.678;23.364;2023-04-03T08:31:36;94117.44;;;10.81;74.16
6134;BME280;3098;42.678;23.364;2023-04-03T08:34:04;94204.44;;;11.09;76.58
6134;BME280;3098;42.678;23.364;2023-04-03T08:36:32;94205.63;;;10.99;76.39
6134;BME280;3098;42.678;23.364;2023-04-03T08:39:00;94239.81;;;11.90;75.00
6134;BME280;3098;42.678;23.364;2023-04-03T08:41:31;94247.44;;;12.52;71.51
6134;BME280;3098;42.678;23.364;2023-04-03T08:44:07;94250.28;;;13.11;69.44
6134;BME280;3098;42.678;23.364;2023-04-03T08:46:52;94244.16;;;13.66;66.47
6134;BME280;3098;42.678;23.364;2023-04-03T08:49:26;94248.13;;;13.29;65.95
6134;BME280;3098;42.678;23.364;2023-04-03T08:51:55;94214.00;;;13.19;65.51
6134;BME280;3098;42.678;23.364;2023-04-03T08:54:31;94248.78;;;13.26;64.52
6134;BME280;3098;42.678;23.364;2023-04-03T08:57:02;94066.59;;;12.68;64.11
6134;BME280;3098;42.678;23.364;2023-04-03T08:59:34;94109.53;;;13.10;62.59
6134;BME280;3098;42.678;23.364;2023-04-03T09:02:21;94233.00;;;13.33;64.81
6134;BME280;3098;42.678;23.364;2023-04-03T09:04:50;93904.59;;;11.48;63.56
6134;BME280;3098;42.678;23.364;2023-04-03T09:07:23;94091.13;;;12.61;64.29
6134;BME280;3098;42.678;23.364;2023-04-03T09:09:54;94225.69;;;13.89;63.99
6134;BME280;3098;42.678;23.364;2023-04-03T09:12:24;94174.66;;;12.73;66.67
6134;BME280;3098;42.678;23.364;2023-04-03T09:15:00;94212.53;;;13.80;64.83
6134;BME280;3098;42.678;23.364;2023-04-03T09:17:45;94114.69;;;13.18;63.82
6134;BME280;3098;42.678;23.364;2023-04-03T09:20:21;94196.63;;;13.09;64.80
6134;BME280;3098;42.678;23.364;2023-04-03T09:22:54;94211.13;;;13.71;64.36
6134;BME280;3098;42.678;23.364;2023-04-03T09:25:24;94202.19;;;13.48;65.14
6134;BME280;3098;42.678;23.364;2023-04-03T09:27:52;94161.16;;;13.21;64.29
6134;BME280;3098;42.678;23.364;2023-04-03T09:30:21;94142.03;;;13.78;62.86
6134;BME280;3098;42.678;23.364;2023-04-03T09:32:51;94199.97;;;13.65;63.92
6134;BME280;3098;42.678;23.364;2023-04-03T09:35:23;94167.78;;;13.27;65.06
6134;BME280;3098;42.678;23.364;2023-04-03T09:38:24;94209.25;;;14.18;63.46
6134;BME280;3098;42.678;23.364;2023-04-03T09:41:10;94219.31;;;13.78;63.52
6134;BME280;3098;42.678;23.364;2023-04-03T09:43:51;94197.75;;;13.67;64.36
6134;BME280;3098;42.678;23.364;2023-04-03T09:46:28;94189.81;;;13.71;63.43
6134;BME280;3098;42.678;23.364;2023-04-03T09:48:58;94155.66;;;12.86;67.31
6134;BME280;3098;42.678;23.364;2023-04-03T09:51:26;94178.41;;;13.11;66.44
6134;BME280;3098;42.678;23.364;2023-04-03T09:53:55;94126.63;;;12.81;66.62
6134;BME280;3098;42.678;23.364;2023-04-03T09:56:27;94148.53;;;12.90;67.30
6134;BME280;3098;42.678;23.364;2023-04-03T09:59:15;94110.56;;;12.22;68.66
6134;BME280;3098;42.678;23.364;2023-04-03T10:04:49;94175.91;;;12.63;69.87
6134;BME280;3098;42.678;23.364;2023-04-03T10:07:31;94048.31;;;11.71;69.20
6134;BME280;3098;42.678;23.364;2023-04-03T10:10:02;94173.03;;;12.16;71.43
6134;BME280;3098;42.678;23.364;2023-04-03T10:12:31;94044.91;;;11.46;72.14
6134;BME280;3098;42.678;23.364;2023-04-03T10:15:00;94170.84;;;12.46;71.96
6134;BME280;3098;42.678;23.364;2023-04-03T10:17:49;94127.53;;;12.05;72.00
6134;BME280;3098;42.678;23.364;2023-04-03T10:20:27;94172.91;;;12.13;74.26
6134;BME280;3098;42.678;23.364;2023-04-03T10:23:15;94199.03;;;12.35;73.16
6134;BME280;3098;42.678;23.364;2023-04-03T10:25:54;94090.34;;;11.93;73.45
6134;BME280;3098;42.678;23.364;2023-04-03T10:28:31;94154.03;;;12.42;74.13
6134;BME280;3098;42.678;23.364;2023-04-03T10:31:05;94041.88;;;11.84;72.78
6134;BME280;3098;42.678;23.364;2023-04-03T10:33:50;94154.34;;;12.80;71.12
6134;BME280;3098;42.678;23.364;2023-04-03T10:36:28;94001.41;;;12.03;71.00
6134;BME280;3098;42.678;23.364;2023-04-03T10:39:02;94141.66;;;12.89;71.29
6134;BME280;3098;42.678;23.364;2023-04-03T10:41:46;94142.97;;;12.95;71.13
6134;BME280;3098;42.678;23.364;2023-04-03T10:44:21;94136.72;;;13.03;70.60
6134;BME280;3098;42.678;23.364;2023-04-03T10:47:01;94133.53;;;12.70;71.45
6134;BME280;3098;42.678;23.364;2023-04-03T10:49:37;94110.09;;;12.60;71.01
6134;BME280;3098;42.678;23.364;2023-04-03T10:52:21;94128.19;;;12.82;71.16
6134;BME280;3098;42.678;23.364;2023-04-03T10:54:56;94129.16;;;12.62;71.73
6134;BME280;3098;42.678;23.364;2023-04-03T10:57:28;94124.16;;;12.60;69.89
6134;BME280;3098;42.678;23.364;2023-04-03T11:00:00;94135.19;;;12.47;70.79
6134;BME280;3098;42.678;23.364;2023-04-03T11:02:30;94064.41;;;12.02;71.50
6134;BME280;3098;42.678;23.364;2023-04-03T11:05:00;94070.09;;;11.89;71.69
6134;BME280;3098;42.678;23.364;2023-04-03T11:07:32;94040.69;;;11.45;72.24
6134;BME280;3098;42.678;23.364;2023-04-03T11:10:05;94062.78;;;11.49;74.97
6134;BME280;3098;42.678;23.364;2023-04-03T11:12:43;94135.50;;;11.57;77.98
6134;BME280;3098;42.678;23.364;2023-04-03T11:15:15;94117.00;;;11.12;82.10
6134;BME280;3098;42.678;23.364;2023-04-03T11:17:48;94155.47;;;11.06;82.90
6134;BME280;3098;42.678;23.364;2023-04-03T11:20:19;94149.09;;;10.86;85.93
6134;BME280;3098;42.678;23.364;2023-04-03T11:22:56;94137.78;;;10.77;89.45
6134;BME280;3098;42.678;23.364;2023-04-03T11:25:26;94082.91;;;10.24;92.76
6134;BME280;3098;42.678;23.364;2023-04-03T11:27:58;94130.34;;;10.38;95.42
6134;BME280;3098;42.678;23.364;2023-04-03T11:30:33;94120.66;;;10.21;99.12
6134;BME280;3098;42.678;23.364;2023-04-03T11:33:27;94136.66;;;10.46;100.00
6134;BME280;3098;42.678;23.364;2023-04-03T11:36:00;94121.94;;;10.15;100.00
6134;BME280;3098;42.678;23.364;2023-04-03T11:38:33;93989.03;;;9.31;100.00
6134;BME280;3098;42.678;23.364;2023-04-03T11:41:02;94126.47;;;10.15;100.00
6134;BME280;3098;42.678;23.364;2023-04-03T11:43:31;94107.72;;;9.91;100.00
6134;BME280;3098;42.678;23.364;2023-04-03T11:46:01;94137.22;;;10.10;100.00
6134;BME280;3098;42.678;23.364;2023-04-03T11:48:50;94142.19;;;10.11;100.00
6134;BME280;3098;42.678;23.364;2023-04-03T11:51:42;94101.22;;;9.67;100.00
6134;BME280;3098;42.678;23.364;2023-04-03T11:54:44;94149.72;;;9.80;100.00
6134;BME280;3098;42.678;23.364;2023-04-03T12:00:47;94151.41;;;9.55;100.00
6134;BME280;3098;42.678;23.364;2023-04-03T12:07:02;94104.03;;;8.87;100.00
6134;BME280;3098;42.678;23.364;2023-04-03T12:12:35;94163.38;;;9.15;100.00
6134;BME280;3098;42.678;23.364;2023-04-03T12:18:43;94163.09;;;9.16;100.00
6134;BME280;3098;42.678;23.364;2023-04-03T12:21:11;93944.81;;;7.71;100.00
6134;BME280;3098;42.678;23.364;2023-04-03T12:23:59;94107.94;;;8.81;100.00
6134;BME280;3098;42.678;23.364;2023-04-03T12:26:31;94084.19;;;8.63;100.00
6134;BME280;3098;42.678;23.364;2023-04-03T12:29:02;94158.13;;;9.06;100.00
6134;BME280;3098;42.678;23.364;2023-04-03T12:31:42;94143.50;;;9.00;100.00
6134;BME280;3098;42.678;23.364;2023-04-03T12:34:23;94144.00;;;8.94;100.00
6134;BME280;3098;42.678;23.364;2023-04-03T12:37:00;94149.00;;;8.87;100.00
6134;BME280;3098;42.678;23.364;2023-04-03T12:39:48;94116.69;;;8.64;100.00
6134;BME280;3098;42.678;23.364;2023-04-03T12:42:29;94137.34;;;8.88;100.00
6134;BME280;3098;42.678;23.364;2023-04-03T12:45:02;94134.38;;;8.89;100.00
6134;BME280;3098;42.678;23.364;2023-04-03T12:47:35;94128.47;;;8.75;100.00
6134;BME280;3098;42.678;23.364;2023-04-03T12:50:05;94060.00;;;8.27;100.00
6134;BME280;3098;42.678;23.364;2023-04-03T12:52:45;94006.13;;;7.94;100.00
6134;BME280;3098;42.678;23.364;2023-04-03T12:55:19;94131.13;;;8.66;100.00
6134;BME280;3098;42.678;23.364;2023-04-03T12:57:46;94038.69;;;8.15;100.00
6134;BME280;3098;42.678;23.364;2023-04-03T13:00:22;94069.59;;;8.23;100.00
6134;BME280;3098;42.678;23.364;2023-04-03T13:02:53;94116.53;;;8.60;100.00
6134;BME280;3098;42.678;23.364;2023-04-03T13:05:21;94127.09;;;8.60;100.00
6134;BME280;3098;42.678;23.364;2023-04-03T13:07:53;94102.72;;;8.29;100.00
6134;BME280;3098;42.678;23.364;2023-04-03T13:10:23;94143.47;;;8.54;100.00
6134;BME280;3098;42.678;23.364;2023-04-03T13:12:52;94119.97;;;8.35;100.00
6134;BME280;3098;42.678;23.364;2023-04-03T13:15:21;94134.25;;;8.51;100.00
6134;BME280;3098;42.678;23.364;2023-04-03T13:17:50;94076.16;;;8.08;100.00
6134;BME280;3098;42.678;23.364;2023-04-03T13:20:21;94140.34;;;8.43;100.00
6134;BME280;3098;42.678;23.364;2023-04-03T13:22:56;94141.56;;;8.46;100.00
6134;BME280;3098;42.678;23.364;2023-04-03T13:25:28;94098.53;;;8.11;100.00
6134;BME280;3098;42.678;23.364;2023-04-03T13:27:58;94066.69;;;7.82;100.00
6134;BME280;3098;42.678;23.364;2023-04-03T13:30:29;94116.84;;;8.25;100.00
6134;BME280;3098;42.678;23.364;2023-04-03T13:32:59;94085.47;;;7.89;100.00
6134;BME280;3098;42.678;23.364;2023-04-03T13:35:35;94071.00;;;7.78;100.00
6134;BME280;3098;42.678;23.364;2023-04-03T13:38:19;94088.88;;;7.81;100.00
6134;BME280;3098;42.678;23.364;2023-04-03T13:40:51;94144.34;;;8.15;100.00
6134;BME280;3098;42.678;23.364;2023-04-03T13:43:19;93913.53;;;6.62;100.00
6134;BME280;3098;42.678;23.364;2023-04-03T13:45:59;93962.59;;;6.97;100.00
6134;BME280;3098;42.678;23.364;2023-04-03T13:49:01;93978.72;;;6.95;100.00
6134;BME280;3098;42.678;23.364;2023-04-03T13:51:56;94111.25;;;8.00;100.00